createdAt,value
2019-06-08T00:00:51.271Z,21.90
2019-06-08T00:03:20.668Z,21.90
2019-06-08T00:05:49.683Z,21.90
2019-06-08T00:08:19.171Z,21.90
2019-06-08T00:10:48.012Z,21.80
2019-06-08T00:13:17.058Z,21.80
2019-06-08T00:15:45.071Z,21.70
2019-06-08T00:18:15.242Z,21.70
2019-06-08T00:20:44.079Z,21.60
2019-06-08T00:23:13.734Z,21.60
2019-06-08T00:25:42.679Z,21.70
2019-06-08T00:28:11.346Z,21.60
2019-06-08T00:30:41.389Z,21.60
2019-06-08T00:33:10.152Z,21.60
2019-06-08T00:35:38.963Z,21.50
2019-06-08T00:38:07.724Z,21.50
2019-06-08T00:40:37.651Z,21.50
2019-06-08T00:43:06.459Z,21.50
2019-06-08T00:45:35.263Z,21.50
2019-06-08T00:48:04.109Z,21.40
2019-06-08T00:50:32.904Z,21.40
2019-06-08T00:53:01.710Z,21.30
2019-06-08T00:55:30.450Z,21.30
2019-06-08T00:57:59.146Z,21.20
2019-06-08T01:00:27.989Z,21.20
2019-06-08T01:02:56.834Z,21.20
2019-06-08T01:05:26.082Z,21.20
2019-06-08T01:07:55.173Z,21.20
2019-06-08T01:10:25.415Z,21.20
2019-06-08T01:12:54.480Z,21.20
2019-06-08T01:15:29.758Z,21.20
2019-06-08T01:18:03.237Z,21.10
2019-06-08T01:20:25.584Z,21.10
2019-06-08T01:22:54.536Z,21.10
2019-06-08T01:25:23.711Z,21.10
2019-06-08T01:27:51.736Z,21.10
2019-06-08T01:30:22.204Z,21.10
2019-06-08T01:32:51.133Z,21.00
2019-06-08T01:35:20.824Z,21.00
2019-06-08T01:37:49.688Z,21.00
2019-06-08T01:40:18.629Z,21.00
2019-06-08T01:42:47.548Z,21.00
2019-06-08T01:45:33.371Z,21.00
2019-06-08T01:48:18.646Z,21.00
2019-06-08T01:50:35.086Z,20.90
2019-06-08T01:53:03.919Z,20.90
2019-06-08T01:55:33.255Z,20.90
2019-06-08T01:58:02.170Z,20.90
2019-06-08T02:00:37.651Z,21.00
2019-06-08T02:03:01.693Z,21.00
2019-06-08T02:05:30.516Z,21.00
2019-06-08T02:07:59.737Z,21.00
2019-06-08T02:10:28.894Z,21.00
2019-06-08T02:12:56.911Z,21.00
2019-06-08T02:15:27.082Z,21.00
2019-06-08T02:17:56.094Z,21.00
2019-06-08T02:20:26.285Z,21.00
2019-06-08T02:22:55.160Z,21.00
2019-06-08T02:25:29.244Z,20.90
2019-06-08T02:27:58.596Z,21.00
2019-06-08T02:30:32.772Z,21.00
2019-06-08T02:33:00.312Z,21.00
2019-06-08T02:35:28.370Z,21.00
2019-06-08T02:37:57.142Z,21.10
2019-06-08T02:40:27.472Z,21.20
2019-06-08T02:42:56.336Z,21.10
2019-06-08T02:45:25.176Z,21.10
2019-06-08T02:47:54.028Z,21.10
2019-06-08T02:50:25.820Z,21.10
2019-06-08T02:52:54.812Z,21.20
2019-06-08T02:55:24.503Z,21.30
2019-06-08T02:57:53.727Z,21.50
2019-06-08T03:00:21.761Z,21.60
2019-06-08T03:02:51.669Z,21.60
2019-06-08T03:05:20.429Z,21.60
2019-06-08T03:07:51.655Z,21.60
2019-06-08T03:10:20.881Z,21.60
2019-06-08T03:12:49.837Z,21.60
2019-06-08T03:15:21.497Z,21.50
2019-06-08T03:17:50.259Z,21.50
2019-06-08T03:20:20.905Z,21.40
2019-06-08T03:22:49.550Z,21.50
2019-06-08T03:25:18.398Z,21.50
2019-06-08T03:27:47.192Z,21.40
2019-06-08T03:30:19.034Z,21.60
2019-06-08T03:32:55.087Z,21.70
2019-06-08T03:35:16.871Z,21.70
2019-06-08T03:37:45.555Z,21.80
2019-06-08T03:40:14.481Z,21.70
2019-06-08T03:42:43.270Z,21.70
2019-06-08T03:45:12.544Z,21.70
2019-06-08T03:47:43.020Z,21.80
2019-06-08T03:50:12.203Z,21.90
2019-06-08T03:52:41.927Z,21.90
2019-06-08T03:55:10.998Z,21.90
2019-06-08T03:57:40.415Z,21.90
2019-06-08T04:00:13.529Z,22.00
2019-06-08T04:02:42.264Z,22.10
2019-06-08T04:05:11.568Z,22.10
2019-06-08T04:07:41.969Z,22.30
2019-06-08T04:10:10.932Z,22.30
2019-06-08T04:12:40.046Z,22.40
2019-06-08T04:15:09.541Z,22.30
2019-06-08T04:17:39.709Z,22.20
2019-06-08T04:20:11.420Z,22.20
2019-06-08T04:22:42.303Z,22.30
2019-06-08T04:25:11.153Z,22.20
2019-06-08T04:27:40.484Z,22.40
2019-06-08T04:30:10.371Z,22.30
2019-06-08T04:32:40.572Z,22.20
2019-06-08T04:35:09.952Z,22.20
2019-06-08T04:37:40.309Z,22.20
2019-06-08T04:40:09.574Z,22.30
2019-06-08T04:42:39.321Z,22.40
2019-06-08T04:45:09.323Z,22.50
2019-06-08T04:47:38.426Z,22.50
2019-06-08T04:50:21.933Z,22.60
2019-06-08T04:52:39.018Z,22.70
2019-06-08T04:55:07.968Z,22.70
2019-06-08T04:57:36.755Z,22.90
2019-06-08T05:00:11.954Z,22.90
2019-06-08T05:02:39.764Z,23.00
2019-06-08T05:05:09.655Z,23.00
2019-06-08T05:07:39.211Z,22.90
2019-06-08T05:10:08.901Z,23.00
2019-06-08T05:12:39.070Z,23.20
2019-06-08T05:15:08.542Z,23.20
2019-06-08T05:17:37.309Z,23.30
2019-06-08T05:20:07.667Z,23.30
2019-06-08T05:22:36.428Z,23.30
2019-06-08T05:25:06.066Z,23.50
2019-06-08T05:27:34.923Z,23.50
2019-06-08T05:30:08.640Z,23.60
2019-06-08T05:32:35.275Z,23.50
2019-06-08T05:35:05.931Z,23.50
2019-06-08T05:37:34.691Z,23.60
2019-06-08T05:40:04.133Z,23.70
2019-06-08T05:42:32.887Z,23.80
2019-06-08T05:45:01.676Z,23.90
2019-06-08T05:47:30.495Z,23.90
2019-06-08T05:49:59.405Z,24.00
2019-06-08T05:52:29.980Z,24.10
2019-06-08T05:54:58.879Z,24.20
2019-06-08T05:57:27.664Z,24.20
2019-06-08T05:59:56.443Z,24.30
2019-06-08T06:02:25.538Z,24.30
2019-06-08T06:04:53.957Z,24.30
2019-06-08T06:07:23.061Z,24.40
2019-06-08T06:09:51.781Z,24.50
2019-06-08T06:12:20.560Z,24.50
2019-06-08T06:14:49.325Z,24.50
2019-06-08T06:17:18.125Z,24.50
2019-06-08T06:19:47.290Z,24.70
2019-06-08T06:22:16.140Z,24.70
2019-06-08T06:24:45.514Z,24.80
2019-06-08T06:27:14.483Z,24.80
2019-06-08T06:29:45.360Z,24.70
2019-06-08T06:32:13.693Z,24.80
2019-06-08T06:34:43.806Z,24.80
2019-06-08T06:37:12.734Z,24.80
2019-06-08T06:39:41.931Z,24.70
2019-06-08T06:42:10.847Z,24.80
2019-06-08T06:44:39.619Z,24.80
2019-06-08T06:47:08.407Z,24.70
2019-06-08T06:49:37.175Z,24.90
2019-06-08T06:52:05.919Z,25.00
2019-06-08T06:54:34.679Z,25.00
2019-06-08T06:57:03.594Z,25.10
2019-06-08T06:59:31.682Z,25.30
2019-06-08T07:02:00.837Z,25.40
2019-06-08T07:04:29.639Z,25.40
2019-06-08T07:06:58.393Z,25.20
2019-06-08T07:09:27.275Z,25.20
2019-06-08T07:11:56.764Z,25.20
2019-06-08T07:14:25.778Z,25.10
2019-06-08T07:16:54.569Z,25.20
2019-06-08T07:19:23.329Z,25.20
2019-06-08T07:21:53.192Z,25.30
2019-06-08T07:24:22.736Z,25.30
2019-06-08T07:26:52.449Z,25.50
2019-06-08T07:29:21.383Z,25.50
2019-06-08T07:31:51.557Z,25.50
2019-06-08T07:34:20.669Z,25.40
2019-06-08T07:36:49.770Z,25.50
2019-06-08T07:39:18.700Z,25.40
2019-06-08T07:41:48.551Z,25.60
2019-06-08T07:44:17.695Z,25.60
2019-06-08T07:46:46.995Z,25.60
2019-06-08T07:49:16.043Z,25.50
2019-06-08T07:51:57.607Z,25.80
2019-06-08T07:54:15.073Z,25.80
2019-06-08T07:56:43.930Z,25.90
2019-06-08T07:59:12.617Z,25.90
2019-06-08T08:01:41.478Z,26.10
2019-06-08T08:04:10.296Z,26.10
2019-06-08T08:06:39.031Z,26.10
2019-06-08T08:09:08.395Z,26.20
2019-06-08T08:11:37.259Z,26.10
2019-06-08T08:14:06.044Z,26.10
2019-06-08T08:16:34.996Z,26.30
2019-06-08T08:19:03.753Z,26.40
2019-06-08T08:21:32.646Z,26.40
2019-06-08T08:24:01.802Z,26.40
2019-06-08T08:26:34.258Z,26.40
2019-06-08T08:29:03.039Z,26.40
2019-06-08T08:31:31.682Z,26.50
2019-06-08T08:34:05.516Z,26.60
2019-06-08T08:36:33.259Z,26.50
2019-06-08T08:39:02.620Z,26.40
2019-06-08T08:41:31.517Z,26.70
2019-06-08T08:44:02.830Z,26.90
2019-06-08T08:46:30.672Z,27.20
2019-06-08T08:49:07.286Z,27.40
2019-06-08T08:51:29.993Z,27.50
2019-06-08T08:54:03.178Z,27.80
2019-06-08T08:56:28.624Z,28.00
2019-06-08T08:59:00.973Z,28.30
2019-06-08T09:01:28.908Z,28.30
2019-06-08T09:04:03.050Z,28.20
2019-06-08T09:06:28.357Z,28.60
2019-06-08T09:09:00.847Z,28.70
2019-06-08T09:11:28.859Z,28.80
2019-06-08T09:14:02.510Z,29.20
2019-06-08T09:16:28.869Z,29.40
2019-06-08T09:19:01.119Z,29.10
2019-06-08T09:21:28.293Z,29.40
2019-06-08T09:24:01.924Z,29.50
2019-06-08T09:26:28.739Z,29.90
2019-06-08T09:28:58.581Z,30.10
2019-06-08T09:31:28.192Z,30.00
2019-06-08T09:34:07.505Z,30.50
2019-06-08T09:36:28.815Z,30.40
2019-06-08T09:39:00.956Z,30.70
2019-06-08T09:41:31.170Z,30.80
2019-06-08T09:44:02.212Z,30.90
2019-06-08T09:46:29.046Z,30.80
2019-06-08T09:49:00.500Z,31.00
2019-06-08T09:51:28.504Z,31.40
2019-06-08T09:54:02.152Z,31.70
2019-06-08T09:56:28.413Z,32.00
2019-06-08T09:59:01.281Z,32.20
2019-06-08T10:01:28.620Z,32.50
2019-06-08T10:04:00.858Z,32.90
2019-06-08T10:06:28.190Z,33.40
2019-06-08T10:08:58.445Z,33.10
2019-06-08T10:11:28.095Z,32.80
2019-06-08T10:13:59.867Z,33.30
2019-06-08T10:16:30.466Z,33.60
2019-06-08T10:19:02.299Z,33.60
2019-06-08T10:21:28.526Z,33.30
2019-06-08T10:24:00.584Z,33.80
2019-06-08T10:26:28.102Z,33.50
2019-06-08T10:29:00.245Z,33.30
2019-06-08T10:31:36.485Z,33.40
2019-06-08T10:34:00.581Z,33.60
2019-06-08T10:36:28.583Z,33.80
2019-06-08T10:39:01.831Z,33.90
2019-06-08T10:41:28.032Z,33.20
2019-06-08T10:43:57.229Z,32.60
2019-06-08T10:46:26.212Z,32.60
2019-06-08T10:48:54.997Z,32.30
2019-06-08T10:51:23.638Z,32.90
2019-06-08T10:53:53.335Z,33.20
2019-06-08T10:56:22.089Z,33.30
2019-06-08T10:58:51.008Z,33.60
2019-06-08T11:01:19.771Z,33.50
2019-06-08T11:03:49.040Z,34.10
2019-06-08T11:06:18.853Z,34.40
2019-06-08T11:08:47.877Z,34.00
2019-06-08T11:11:19.457Z,34.30
2019-06-08T11:13:50.078Z,34.00
2019-06-08T11:16:18.138Z,34.50
2019-06-08T11:18:50.830Z,35.00
2019-06-08T11:21:18.787Z,34.80
2019-06-08T11:24:04.721Z,35.00
2019-06-08T11:26:23.963Z,34.50
2019-06-08T11:28:51.193Z,33.70
2019-06-08T11:31:19.863Z,34.80
2019-06-08T11:33:49.092Z,35.00
2019-06-08T11:36:18.817Z,35.50
2019-06-08T11:38:48.081Z,34.70
2019-06-08T11:41:19.084Z,33.70
2019-06-08T11:43:47.510Z,33.90
2019-06-08T11:46:19.008Z,35.10
2019-06-08T11:48:48.476Z,35.10
2019-06-08T11:51:17.265Z,35.70
2019-06-08T11:53:49.954Z,36.20
2019-06-08T11:56:18.285Z,36.70
2019-06-08T11:58:48.590Z,36.80
2019-06-08T12:01:18.509Z,37.20
2019-06-08T12:03:48.381Z,37.60
2019-06-08T12:06:18.502Z,38.00
2019-06-08T12:08:47.569Z,37.60
2019-06-08T12:11:20.748Z,38.20
2019-06-08T12:13:47.458Z,38.20
2019-06-08T12:16:21.958Z,38.40
2019-06-08T12:18:49.256Z,38.00
2019-06-08T12:21:18.578Z,37.70
2019-06-08T12:23:47.534Z,37.90
2019-06-08T12:26:16.394Z,38.50
2019-06-08T12:28:45.177Z,37.80
2019-06-08T12:31:17.692Z,37.80
2019-06-08T12:33:44.383Z,38.40
2019-06-08T12:36:15.538Z,37.80
2019-06-08T12:38:43.947Z,38.30
2019-06-08T12:41:14.047Z,38.90
2019-06-08T12:43:43.263Z,38.40
2019-06-08T12:46:13.411Z,39.90
2019-06-08T12:48:42.657Z,38.90
2019-06-08T12:51:12.897Z,37.60
2019-06-08T12:53:41.981Z,38.70
2019-06-08T12:56:12.087Z,38.00
2019-06-08T12:58:42.444Z,37.60
2019-06-08T13:01:12.557Z,39.00
2019-06-08T13:03:41.778Z,38.50
2019-06-08T13:06:11.180Z,38.60
2019-06-08T13:08:41.940Z,37.00
2019-06-08T13:11:12.078Z,37.70
2019-06-08T13:13:41.236Z,37.60
2019-06-08T13:16:10.536Z,37.40
2019-06-08T13:18:40.823Z,37.70
2019-06-08T13:21:21.768Z,37.20
2019-06-08T13:23:41.333Z,36.50
2019-06-08T13:26:13.855Z,35.70
2019-06-08T13:28:40.908Z,35.10
2019-06-08T13:31:11.633Z,35.00
2019-06-08T13:33:40.153Z,36.30
2019-06-08T13:36:10.255Z,36.30
2019-06-08T13:38:39.244Z,37.50
2019-06-08T13:41:08.789Z,37.60
2019-06-08T13:43:40.360Z,36.60
2019-06-08T13:46:08.276Z,35.70
2019-06-08T13:48:37.653Z,34.70
2019-06-08T13:51:08.431Z,35.40
2019-06-08T13:53:38.357Z,36.20
2019-06-08T13:56:07.894Z,35.50
2019-06-08T13:58:38.233Z,35.00
2019-06-08T14:01:09.973Z,35.30
2019-06-08T14:03:37.992Z,36.50
2019-06-08T14:06:07.698Z,35.40
2019-06-08T14:08:38.597Z,35.30
2019-06-08T14:11:08.292Z,36.70
2019-06-08T14:13:38.026Z,38.20
2019-06-08T14:16:11.152Z,38.50
2019-06-08T14:18:38.587Z,38.40
2019-06-08T14:21:07.534Z,38.30
2019-06-08T14:23:38.686Z,37.80
2019-06-08T14:26:08.297Z,38.80
2019-06-08T14:28:38.082Z,38.40
2019-06-08T14:31:10.673Z,36.90
2019-06-08T14:33:38.216Z,35.10
2019-06-08T14:36:07.994Z,34.10
2019-06-08T14:38:41.832Z,34.00
2019-06-08T14:41:07.755Z,35.40
2019-06-08T14:43:38.207Z,35.00
2019-06-08T14:46:08.073Z,33.80
2019-06-08T14:48:38.013Z,33.50
2019-06-08T14:51:08.764Z,33.10
2019-06-08T14:53:38.732Z,33.30
2019-06-08T14:56:08.832Z,32.60
2019-06-08T14:58:38.570Z,31.90
2019-06-08T15:01:08.016Z,31.90
2019-06-08T15:03:37.879Z,31.70
2019-06-08T15:06:07.933Z,32.80
2019-06-08T15:08:37.165Z,32.70
2019-06-08T15:11:07.926Z,32.20
2019-06-08T15:13:38.031Z,31.80
2019-06-08T15:16:08.148Z,31.70
2019-06-08T15:18:38.556Z,31.90
2019-06-08T15:21:07.975Z,31.70
2019-06-08T15:23:36.929Z,31.90
2019-06-08T15:26:20.655Z,32.10
2019-06-08T15:28:36.498Z,31.60
2019-06-08T15:31:08.156Z,31.20
2019-06-08T15:33:38.186Z,31.10
2019-06-08T15:36:08.351Z,31.00
2019-06-08T15:38:38.053Z,31.00
2019-06-08T15:41:07.830Z,30.80
2019-06-08T15:43:39.980Z,30.60
2019-06-08T15:46:08.482Z,30.50
2019-06-08T15:48:39.853Z,30.40
2019-06-08T15:51:08.585Z,30.10
2019-06-08T15:53:37.915Z,29.90
2019-06-08T15:56:08.386Z,29.90
2019-06-08T15:58:40.228Z,29.80
2019-06-08T16:01:07.990Z,29.50
2019-06-08T16:03:36.786Z,29.50
2019-06-08T16:06:04.698Z,29.30
2019-06-08T16:08:37.548Z,29.20
2019-06-08T16:11:04.038Z,29.30
2019-06-08T16:13:33.028Z,29.20
2019-06-08T16:16:01.792Z,29.20
2019-06-08T16:18:29.706Z,29.10
2019-06-08T16:20:58.476Z,29.10
2019-06-08T16:23:27.702Z,28.90
2019-06-08T16:25:56.594Z,28.80
2019-06-08T16:28:25.664Z,28.80
2019-06-08T16:30:54.733Z,28.70
2019-06-08T16:33:23.523Z,28.70
2019-06-08T16:35:51.506Z,28.60
2019-06-08T16:38:20.248Z,28.50
2019-06-08T16:40:49.071Z,28.60
2019-06-08T16:43:16.987Z,28.60
2019-06-08T16:45:45.824Z,28.50
2019-06-08T16:48:13.726Z,28.60
2019-06-08T16:50:42.514Z,28.60
2019-06-08T16:53:10.476Z,28.50
2019-06-08T16:55:39.217Z,28.50
2019-06-08T16:58:08.965Z,28.40
2019-06-08T17:00:40.770Z,28.00
2019-06-08T17:03:08.067Z,27.50
2019-06-08T17:05:35.907Z,27.20
2019-06-08T17:08:04.731Z,26.90
2019-06-08T17:10:32.645Z,27.10
2019-06-08T17:13:01.418Z,26.60
2019-06-08T17:15:30.259Z,26.70
2019-06-08T17:17:58.279Z,26.30
2019-06-08T17:20:27.138Z,26.50
2019-06-08T17:22:55.955Z,26.60
2019-06-08T17:25:24.851Z,26.60
2019-06-08T17:27:52.914Z,26.50
2019-06-08T17:30:21.670Z,26.70
2019-06-08T17:32:50.682Z,26.60
2019-06-08T17:35:19.391Z,26.60
2019-06-08T17:37:48.255Z,26.50
2019-06-08T17:40:17.120Z,26.40
2019-06-08T17:42:45.936Z,26.60
2019-06-08T17:45:14.840Z,26.50
2019-06-08T17:47:42.886Z,26.30
2019-06-08T17:50:12.202Z,26.20
2019-06-08T17:52:41.154Z,26.30
2019-06-08T17:55:09.400Z,26.30
2019-06-08T17:57:48.561Z,26.40
2019-06-08T18:00:10.192Z,26.40
2019-06-08T18:02:42.049Z,26.40
2019-06-08T18:05:10.438Z,26.40
2019-06-08T18:07:40.198Z,26.40
2019-06-08T18:10:09.264Z,26.50
2019-06-08T18:12:41.155Z,26.60
2019-06-08T18:15:09.193Z,26.70
2019-06-08T18:17:41.999Z,26.70
2019-06-08T18:20:13.073Z,26.70
2019-06-08T18:22:44.394Z,26.70
2019-06-08T18:25:12.169Z,26.80
2019-06-08T18:27:43.727Z,26.70
2019-06-08T18:30:13.260Z,26.70
2019-06-08T18:32:44.008Z,26.70
2019-06-08T18:35:12.947Z,26.70
2019-06-08T18:37:41.386Z,26.70
2019-06-08T18:40:13.303Z,26.70
2019-06-08T18:42:43.152Z,26.70
2019-06-08T18:45:13.524Z,26.70
2019-06-08T18:47:43.720Z,26.80
2019-06-08T18:50:12.984Z,26.70
2019-06-08T18:52:44.748Z,26.70
2019-06-08T18:55:13.809Z,26.60
2019-06-08T18:57:42.987Z,26.60
2019-06-08T19:00:13.165Z,26.60
2019-06-08T19:02:44.931Z,26.60
2019-06-08T19:05:12.449Z,26.50
2019-06-08T19:07:41.271Z,26.50
2019-06-08T19:10:10.324Z,26.50
2019-06-08T19:12:41.091Z,26.40
2019-06-08T19:15:11.422Z,26.40
2019-06-08T19:17:48.222Z,26.30
2019-06-08T19:20:11.084Z,26.40
2019-06-08T19:22:43.809Z,26.20
2019-06-08T19:25:09.715Z,26.20
2019-06-08T19:27:43.031Z,26.10
2019-06-08T19:30:09.315Z,26.10
2019-06-08T19:32:39.068Z,26.10
2019-06-08T19:35:08.056Z,26.00
2019-06-08T19:37:37.692Z,25.90
2019-06-08T19:40:07.542Z,25.80
2019-06-08T19:42:44.697Z,25.80
2019-06-08T19:45:08.788Z,25.80
2019-06-08T19:47:38.434Z,25.80
2019-06-08T19:50:08.072Z,25.80
2019-06-08T19:52:40.028Z,25.90
2019-06-08T19:55:08.230Z,25.80
2019-06-08T19:57:37.194Z,25.70
2019-06-08T20:00:07.440Z,25.60
2019-06-08T20:02:36.534Z,25.50
2019-06-08T20:05:07.596Z,25.50
2019-06-08T20:07:37.904Z,25.50
2019-06-08T20:10:08.190Z,25.40
